Time;durP1;ratioP1;P1;durP2;ratioP2;P2;SDS_P1;SDS_P2;PMS_P1;PMS_P2;Temp;Humidity;BMP_temperature;BMP_pressure;BME280_temperature;BME280_humidity;BME280_pressure;Samples;Min_cycle;Max_cycle;Signal;HPM_P1;HPM_P2
2023/01/13 05:03:35;;;;;;;22.13;12.57;;;;;;;1.26;100.00;100717.63;5592438;28;20433;-83
2023/01/13 05:06:38;;;;;;;24.33;13.82;;;;;;;1.28;100.00;100719.19;5325632;33;34143;-83
2023/01/13 05:09:41;;;;;;;22.27;13.98;;;;;;;1.27;100.00;100717.50;5328147;33;33927;-82
2023/01/13 05:19:50;;;;;;;26.80;12.70;;;;;;;1.32;100.00;100722.50;5255637;33;34121;-83
2023/01/13 05:26:15;;;;;;;25.17;13.38;;;;;;;1.26;100.00;100737.03;5326105;33;34935;-83
2023/01/13 05:29:17;;;;;;;23.08;12.80;;;;;;;1.26;100.00;100734.38;5325726;33;34997;-83
2023/01/13 05:32:21;;;;;;;24.92;14.43;;;;;;;1.18;100.00;100742.03;5326317;33;32306;-83
2023/01/13 05:35:24;;;;;;;22.25;12.63;;;;;;;1.24;100.00;100736.28;5332860;33;34359;-83
2023/01/13 05:38:27;;;;;;;21.20;12.40;;;;;;;1.17;100.00;100748.31;5330609;33;33359;-83
2023/01/13 05:44:51;;;;;;;23.02;12.55;;;;;;;1.28;100.00;100740.41;5326829;33;34525;-83
2023/01/13 05:47:55;;;;;;;23.20;13.45;;;;;;;1.22;100.00;100740.00;5326019;33;34545;-84
2023/01/13 05:50:59;;;;;;;22.23;12.52;;;;;;;1.22;100.00;100732.03;5325379;33;34128;-83
2023/01/13 05:54:02;;;;;;;22.40;13.43;;;;;;;1.13;100.00;100737.03;5325801;33;34070;-82
2023/01/13 05:57:05;;;;;;;24.35;13.23;;;;;;;1.08;100.00;100736.53;5325251;33;33921;-83
2023/01/13 06:00:08;;;;;;;24.37;13.18;;;;;;;1.07;100.00;100734.81;5325121;33;33832;-83
2023/01/13 06:03:14;;;;;;;21.48;12.30;;;;;;;1.21;100.00;100733.00;5311611;33;33701;-84
2023/01/13 06:06:17;;;;;;;22.55;12.75;;;;;;;1.15;100.00;100744.91;5312309;33;32964;-84
2023/01/13 06:09:21;;;;;;;21.83;11.95;;;;;;;1.17;100.00;100739.47;5324395;33;34561;-83
2023/01/13 06:12:25;;;;;;;21.30;13.18;;;;;;;1.12;100.00;100742.47;5314768;33;32486;-83
2023/01/13 06:15:28;;;;;;;22.58;12.23;;;;;;;1.21;100.00;100744.47;5326158;33;34462;-83
2023/01/13 06:18:31;;;;;;;24.35;11.48;;;;;;;1.20;100.00;100731.28;5330208;33;34237;-83
2023/01/13 06:21:34;;;;;;;27.35;13.25;;;;;;;1.20;100.00;100737.47;5327252;33;33996;-83
2023/01/13 06:24:38;;;;;;;25.42;13.85;;;;;;;1.14;100.00;100745.84;5324951;33;33644;-88
2023/01/13 06:27:41;;;;;;;21.30;12.77;;;;;;;1.08;100.00;100751.56;5327195;33;33613;-87
2023/01/13 06:30:52;;;;;;;26.83;14.43;;;;;;;1.14;100.00;100745.84;5325784;33;34096;-88
2023/01/13 06:34:02;;;;;;;25.33;14.02;;;;;;;1.22;100.00;100753.25;5324388;33;33886;-83
2023/01/13 06:37:05;;;;;;;;;;;;;;;1.19;100.00;100751.66;5324944;33;33909;-83
2023/01/13 06:40:11;;;;;;;22.92;13.30;;;;;;;1.27;100.00;100743.19;5324567;33;35130;-83
2023/01/13 06:43:14;;;;;;;23.83;11.98;;;;;;;1.30;100.00;100746.47;5324422;33;34247;-82
2023/01/13 06:46:18;;;;;;;25.00;13.10;;;;;;;1.26;100.00;100755.59;5326946;33;33990;-83
2023/01/13 06:49:21;;;;;;;22.83;12.98;;;;;;;1.22;100.00;100750.59;5328762;33;34551;-83
2023/01/13 06:52:26;;;;;;;25.65;14.40;;;;;;;1.25;100.00;100769.78;5327238;33;34809;-83
2023/01/13 06:55:29;;;;;;;25.35;13.70;;;;;;;1.34;100.00;100763.00;5333387;33;33824;-83
2023/01/13 06:58:31;;;;;;;23.48;12.68;;;;;;;1.39;100.00;100765.34;5320757;33;34203;-83
2023/01/13 07:01:34;;;;;;;24.12;13.85;;;;;;;1.30;100.00;100766.84;5318068;33;151363;-84
2023/01/13 07:04:37;;;;;;;24.67;13.65;;;;;;;1.34;100.00;100771.78;5320195;33;33879;-83
2023/01/13 07:07:41;;;;;;;22.35;13.70;;;;;;;1.38;100.00;100767.16;5306477;33;32598;-83
2023/01/13 07:10:43;;;;;;;23.30;12.70;;;;;;;1.40;100.00;100765.22;5321594;33;35146;-84
2023/01/13 07:17:07;;;;;;;22.95;13.10;;;;;;;1.52;100.00;100772.31;5315778;33;33666;-83
2023/01/13 07:20:10;;;;;;;22.98;13.00;;;;;;;1.63;100.00;100763.56;5314129;33;34115;-84
2023/01/13 07:23:13;;;;;;;22.98;14.07;;;;;;;1.65;100.00;100764.31;5317980;33;34771;-83
2023/01/13 07:26:16;;;;;;;20.85;13.38;;;;;;;1.66;100.00;100770.47;5315693;33;34847;-83
2023/01/13 07:29:19;;;;;;;24.02;13.40;;;;;;;1.67;100.00;100766.84;5324148;33;34112;-84
2023/01/13 07:32:22;;;;;;;23.00;13.10;;;;;;;1.68;100.00;100758.78;5326420;33;33750;-84
2023/01/13 07:35:24;;;;;;;21.67;12.23;;;;;;;1.75;100.00;100764.47;5326078;33;33963;-84
2023/01/13 07:38:28;;;;;;;23.80;12.85;;;;;;;1.88;100.00;100767.09;5312602;33;33385;-84
2023/01/13 07:44:53;;;;;;;29.37;13.80;;;;;;;2.02;100.00;100765.13;5325984;33;34545;-84
2023/01/13 07:47:55;;;;;;;31.27;13.02;;;;;;;2.18;100.00;100772.78;5324879;33;34615;-84
2023/01/13 07:51:04;;;;;;;23.75;13.27;;;;;;;2.26;100.00;100774.88;5324678;33;33961;-84
2023/01/13 07:54:06;;;;;;;24.75;13.80;;;;;;;2.44;100.00;100780.63;5325129;33;34874;-84
2023/01/13 07:57:09;;;;;;;22.25;12.95;;;;;;;2.46;100.00;100782.22;5324704;33;34943;-84
2023/01/13 08:00:13;;;;;;;20.27;13.02;;;;;;;2.60;100.00;100774.97;5325276;33;34428;-84
2023/01/13 08:03:16;;;;;;;21.05;12.40;;;;;;;2.69;100.00;100776.94;5324941;33;32348;-88
2023/01/13 08:06:18;;;;;;;21.65;12.48;;;;;;;2.87;100.00;100774.69;5324910;33;34599;-88
2023/01/13 08:09:21;;;;;;;22.90;12.70;;;;;;;2.97;100.00;100790.78;5311172;33;32458;-88
2023/01/13 08:16:01;;;;;;;24.77;12.45;;;;;;;2.84;100.00;100805.03;5325069;33;34008;-84
2023/01/13 08:19:04;;;;;;;22.30;12.85;;;;;;;2.89;100.00;100807.31;5325756;33;33599;-84
2023/01/13 08:22:07;;;;;;;21.95;12.20;;;;;;;3.00;100.00;100803.84;5311334;33;32314;-84
2023/01/13 08:25:10;;;;;;;21.30;11.98;;;;;;;3.03;100.00;100799.13;5311954;33;33856;-84
2023/01/13 08:28:14;;;;;;;18.98;10.95;;;;;;;3.04;100.00;100799.97;5311939;33;32769;-83
2023/01/13 08:31:18;;;;;;;15.63;9.52;;;;;;;2.97;100.00;100814.72;5325479;33;33546;-83
2023/01/13 08:34:22;;;;;;;21.98;11.25;;;;;;;2.99;100.00;100810.97;5324961;33;34257;-85
2023/01/13 08:37:25;;;;;;;15.95;10.48;;;;;;;2.98;100.00;100819.06;5322980;33;33883;-83
2023/01/13 08:40:30;;;;;;;17.92;10.93;;;;;;;3.04;100.00;100811.47;5321059;33;34456;-84
2023/01/13 08:43:32;;;;;;;19.27;11.90;;;;;;;3.14;100.00;100814.25;5323691;33;34725;-84
2023/01/13 08:46:36;;;;;;;18.05;11.15;;;;;;;3.14;100.00;100812.44;5321743;33;34051;-84
2023/01/13 08:49:39;;;;;;;17.50;10.80;;;;;;;3.16;100.00;100810.53;5323450;33;34020;-84
2023/01/13 08:52:42;;;;;;;18.12;10.40;;;;;;;3.21;100.00;100812.81;5328967;33;33927;-84
2023/01/13 08:55:45;;;;;;;17.92;10.32;;;;;;;3.17;100.00;100809.53;5314022;33;34321;-84
2023/01/13 08:58:48;;;;;;;14.73;10.35;;;;;;;3.20;100.00;100815.59;5328221;33;34322;-85
2023/01/13 09:01:51;;;;;;;17.00;10.18;;;;;;;3.19;100.00;100825.41;5328137;33;34100;-85
2023/01/13 09:04:54;;;;;;;14.25;9.45;;;;;;;3.10;100.00;100815.44;5330072;33;34294;-86
2023/01/13 09:07:57;;;;;;;16.60;9.45;;;;;;;3.20;100.00;100813.78;5329754;33;35121;-85
2023/01/13 09:11:00;;;;;;;16.05;9.45;;;;;;;3.15;100.00;100808.81;5324816;33;33880;-85
2023/01/13 09:14:03;;;;;;;14.73;9.40;;;;;;;2.92;100.00;100817.72;5324465;33;33991;-85
2023/01/13 09:17:06;;;;;;;16.45;9.77;;;;;;;2.96;100.00;100813.88;5325186;33;34016;-84
2023/01/13 09:20:10;;;;;;;16.50;10.25;;;;;;;2.97;100.00;100815.56;5324420;33;33672;-85
2023/01/13 09:23:14;;;;;;;14.63;10.10;;;;;;;2.91;100.00;100808.91;5322628;33;35483;-84
2023/01/13 09:26:20;;;;;;;14.52;9.77;;;;;;;2.92;100.00;100817.72;5325675;33;34280;-85
2023/01/13 09:29:23;;;;;;;16.25;10.63;;;;;;;3.10;100.00;100811.00;5332831;33;33979;-85
2023/01/13 09:32:25;;;;;;;22.02;10.63;;;;;;;2.95;100.00;100812.16;5328943;33;34200;-83
2023/01/13 09:35:28;;;;;;;18.85;11.57;;;;;;;2.94;100.00;100827.28;5314654;33;34333;-84
2023/01/13 09:38:31;;;;;;;17.60;11.00;;;;;;;3.01;100.00;100818.81;5322642;33;34642;-82
2023/01/13 09:45:08;;;;;;;18.55;10.48;;;;;;;2.98;100.00;100821.72;5324783;33;34648;-87
2023/01/13 09:48:31;;;;;;;19.35;11.35;;;;;;;2.99;100.00;100808.31;5322724;33;34110;-83
2023/01/13 09:51:48;;;;;;;19.77;11.23;;;;;;;2.95;100.00;100813.03;5322408;33;34086;-83
2023/01/13 09:55:02;;;;;;;19.90;10.50;;;;;;;2.79;100.00;100812.50;5323554;33;35064;-84
2023/01/13 09:58:26;;;;;;;19.85;11.68;;;;;;;2.72;100.00;100813.91;5322078;33;33639;-84
2023/01/13 10:02:07;;;;;;;21.67;11.35;;;;;;;2.76;100.00;100810.09;5320000;33;34944;-84
2023/01/13 10:05:19;;;;;;;21.37;12.02;;;;;;;2.92;100.00;100812.41;5311694;33;32721;-84
2023/01/13 10:08:27;;;;;;;19.83;11.73;;;;;;;3.00;100.00;100804.69;5311828;33;33452;-84
2023/01/13 10:15:01;;;;;;;19.30;11.32;;;;;;;2.95;100.00;100810.37;5311078;33;33284;-85
2023/01/13 10:18:21;;;;;;;19.98;11.55;;;;;;;3.03;100.00;100796.47;5310708;33;33086;-85
2023/01/13 10:21:23;;;;;;;20.50;11.93;;;;;;;2.86;100.00;100802.25;5324692;33;33791;-85
2023/01/13 10:24:45;;;;;;;23.20;11.50;;;;;;;2.90;100.00;100801.06;5321707;33;33654;-85
2023/01/13 10:27:50;;;;;;;22.85;11.73;;;;;;;3.10;100.00;100802.16;5323994;33;34429;-85
2023/01/13 10:30:53;;;;;;;23.55;13.00;;;;;;;2.94;100.00;100808.66;5312096;33;32905;-85
2023/01/13 10:34:02;;;;;;;20.92;11.60;;;;;;;2.98;100.00;100805.75;5325499;33;33671;-85
2023/01/13 10:37:06;;;;;;;23.48;12.30;;;;;;;2.92;100.00;100802.59;5325201;33;35357;-85
2023/01/13 10:40:17;;;;;;;22.95;13.68;;;;;;;2.87;100.00;100799.47;5327421;33;34033;-84
2023/01/13 10:43:20;;;;;;;24.15;12.68;;;;;;;2.88;100.00;100795.00;5316569;33;31909;-84
2023/01/13 10:46:23;;;;;;;26.90;12.43;;;;;;;3.04;100.00;100781.34;5329012;33;34021;-84
2023/01/13 10:49:35;;;;;;;24.73;12.02;;;;;;;3.11;100.00;100778.09;5312674;33;33130;-84
2023/01/13 10:52:59;;;;;;;21.52;11.90;;;;;;;3.25;100.00;100777.03;5324745;33;34234;-84
2023/01/13 10:56:03;;;;;;;23.33;12.27;;;;;;;3.11;100.00;100774.59;5326564;33;33603;-85
2023/01/13 10:59:26;;;;;;;21.50;12.88;;;;;;;2.99;100.00;100773.75;5323088;33;33545;-85
2023/01/13 11:02:34;;;;;;;22.02;12.70;;;;;;;3.13;100.00;100762.87;5313445;33;33994;-85
2023/01/13 11:05:37;;;;;;;22.73;12.82;;;;;;;3.02;100.00;100757.56;5309131;33;33622;-89
2023/01/13 11:08:46;;;;;;;24.55;12.90;;;;;;;3.06;100.00;100745.69;5324704;33;33985;-89
2023/01/13 11:11:54;;;;;;;23.17;12.57;;;;;;;3.15;100.00;100749.44;5321050;33;34632;-86
2023/01/13 11:15:01;;;;;;;25.15;13.38;;;;;;;3.14;100.00;100747.75;5321773;33;34668;-85
2023/01/13 11:18:12;;;;;;;23.70;14.02;;;;;;;2.88;100.00;100747.12;5331625;33;34123;-85
2023/01/13 11:21:28;;;;;;;24.08;12.73;;;;;;;2.89;100.00;100746.16;5313512;33;33723;-86
2023/01/13 11:24:43;;;;;;;21.40;12.73;;;;;;;3.05;100.00;100732.53;5314161;33;32283;-84
2023/01/13 11:27:54;;;;;;;23.48;13.52;;;;;;;3.10;100.00;100728.53;5324205;33;34407;-84
2023/01/13 11:31:24;;;;;;;23.02;12.85;;;;;;;3.03;100.00;100721.16;5324342;33;35034;-85
2023/01/13 11:34:34;;;;;;;25.45;13.48;;;;;;;3.00;100.00;100721.41;5323338;33;33854;-84
2023/01/13 11:37:41;;;;;;;25.45;13.50;;;;;;;3.03;100.00;100726.47;5310585;33;32347;-84
2023/01/13 11:40:48;;;;;;;22.17;12.70;;;;;;;3.02;100.00;100728.28;5325125;33;34046;-84
2023/01/13 11:44:13;;;;;;;24.60;13.70;;;;;;;3.15;100.00;100731.66;5328413;33;34401;-85
2023/01/13 11:47:22;;;;;;;26.30;14.07;;;;;;;3.21;100.00;100721.50;5324266;33;33940;-84
2023/01/13 11:50:41;;;;;;;26.55;14.10;;;;;;;3.30;100.00;100721.59;5314589;33;32711;-88
2023/01/13 11:54:23;;;;;;;24.67;14.35;;;;;;;3.23;100.00;100715.09;5332456;33;33844;-85
2023/01/13 11:57:56;;;;;;;32.15;13.82;;;;;;;3.29;100.00;100703.97;5315727;33;32435;-84
2023/01/13 12:01:16;;;;;;;28.20;13.48;;;;;;;3.31;100.00;100691.41;5318121;33;34161;-84
2023/01/13 12:04:19;;;;;;;24.30;13.50;;;;;;;3.23;100.00;100677.84;5315889;33;34474;-84
2023/01/13 12:07:40;;;;;;;27.83;13.73;;;;;;;3.43;100.00;100673.59;5299035;33;32929;-84
2023/01/13 12:11:01;;;;;;;27.73;14.93;;;;;;;3.30;100.00;100671.06;5309616;33;33631;-84
2023/01/13 12:14:23;;;;;;;27.10;13.18;;;;;;;3.38;100.00;100665.13;5313606;33;34821;-85
2023/01/13 12:17:37;;;;;;;27.33;14.40;;;;;;;3.36;100.00;100651.97;5324009;33;33650;-89
2023/01/13 12:21:11;;;;;;;25.12;14.30;;;;;;;3.32;100.00;100647.00;5332659;33;34488;-85
2023/01/13 12:24:28;;;;;;;28.42;14.50;;;;;;;3.32;100.00;100650.50;5318269;33;34916;-84
2023/01/13 12:27:42;;;;;;;29.02;13.88;;;;;;;3.34;100.00;100640.59;5298508;33;32368;-85
2023/01/13 12:30:50;;;;;;;29.60;15.02;;;;;;;3.29;100.00;100641.94;5317535;33;34770;-84
2023/01/13 12:34:01;;;;;;;26.70;14.93;;;;;;;3.20;100.00;100640.84;5324473;33;33851;-85
2023/01/13 12:37:28;;;;;;;29.40;14.63;;;;;;;3.22;100.00;100652.22;5312884;33;33741;-85
2023/01/13 12:40:53;;;;;;;28.02;16.17;;;;;;;3.26;100.00;100660.81;5314130;33;33789;-84
2023/01/13 12:47:35;;;;;;;28.77;16.48;;;;;;;3.29;100.00;100653.41;5324876;33;34914;-88
2023/01/13 12:50:40;;;;;;;33.55;15.82;;;;;;;3.34;100.00;100651.22;5306024;33;32478;-85
2023/01/13 12:53:44;;;;;;;29.42;15.23;;;;;;;3.46;100.00;100653.87;5314619;33;33376;-85
2023/01/13 12:56:48;;;;;;;30.58;16.23;;;;;;;3.45;100.00;100654.81;5323783;33;34260;-85
2023/01/13 13:00:03;;;;;;;30.25;16.20;;;;;;;3.45;100.00;100646.84;5333861;33;34297;-84
2023/01/13 13:03:12;;;;;;;32.55;17.48;;;;;;;3.38;100.00;100651.81;5333725;33;34325;-85
2023/01/13 13:06:21;;;;;;;30.88;16.58;;;;;;;3.45;100.00;100645.00;5332342;33;34837;-85
2023/01/13 13:09:29;;;;;;;31.12;15.82;;;;;;;3.48;100.00;100649.25;5325508;33;33974;-84
2023/01/13 13:16:25;;;;;;;30.20;16.65;;;;;;;3.48;100.00;100662.53;5311871;33;32218;-84
2023/01/13 13:19:30;;;;;;;27.45;15.32;;;;;;;3.59;100.00;100673.16;5331377;33;34441;-85
2023/01/13 13:22:43;;;;;;;29.75;15.93;;;;;;;3.65;100.00;100670.00;5325067;33;34053;-85
2023/01/13 13:26:19;;;;;;;28.73;16.05;;;;;;;3.59;100.00;100667.84;5325556;33;33906;-84
2023/01/13 13:29:32;;;;;;;30.23;15.93;;;;;;;3.58;100.00;100668.81;5311331;33;33771;-85
2023/01/13 13:33:12;;;;;;;28.42;15.95;;;;;;;3.52;100.00;100664.00;5320844;33;33916;-85
2023/01/13 13:36:38;;;;;;;30.83;16.62;;;;;;;3.57;100.00;100661.81;5309338;33;32359;-85
2023/01/13 13:46:47;;;;;;;26.55;14.27;;;;;;;3.84;100.00;100659.53;5324531;33;33593;-85
2023/01/13 13:49:53;;;;;;;26.58;14.55;;;;;;;3.82;100.00;100653.47;5328314;33;34409;-85
2023/01/13 13:53:07;;;;;;;25.23;14.23;;;;;;;3.88;100.00;100657.44;5333722;33;34872;-83
2023/01/13 13:56:33;;;;;;;29.90;14.52;;;;;;;3.85;100.00;100673.69;5330602;33;34679;-85
2023/01/13 13:59:38;;;;;;;26.52;14.73;;;;;;;3.83;100.00;100676.50;5320078;33;34809;-84
2023/01/13 14:02:49;;;;;;;27.58;15.43;;;;;;;3.76;100.00;100680.63;5309420;33;33594;-84
2023/01/13 14:06:01;;;;;;;27.58;13.98;;;;;;;3.84;100.00;100687.97;5311362;33;32503;-84
2023/01/13 14:09:16;;;;;;;30.02;15.15;;;;;;;3.81;100.00;100683.75;5321485;33;33711;-85
2023/01/13 14:12:22;;;;;;;27.10;15.55;;;;;;;3.94;100.00;100678.25;5324980;33;33726;-85
2023/01/13 14:15:27;;;;;;;25.83;14.15;;;;;;;3.90;100.00;100686.62;5323884;33;33950;-85
2023/01/13 14:18:34;;;;;;;25.35;14.20;;;;;;;3.82;100.00;100685.44;5324242;33;34732;-84
2023/01/13 14:21:37;;;;;;;26.12;14.75;;;;;;;3.95;100.00;100687.94;5325662;33;33912;-83
2023/01/13 14:24:50;;;;;;;26.42;14.63;;;;;;;3.98;100.00;100682.38;5306963;33;34729;-84
2023/01/13 14:27:54;;;;;;;27.60;15.25;;;;;;;3.96;100.00;100678.13;5321805;33;34990;-84
2023/01/13 14:30:59;;;;;;;26.10;14.20;;;;;;;4.06;100.00;100671.03;5309270;33;33495;-83
2023/01/13 14:34:03;;;;;;;26.20;14.02;;;;;;;4.01;100.00;100670.59;5311797;33;32751;-84
2023/01/13 14:37:35;;;;;;;24.15;13.50;;;;;;;4.07;100.00;100670.09;5326571;33;33676;-85
2023/01/13 14:40:43;;;;;;;28.23;14.43;;;;;;;4.02;100.00;100669.62;5315784;33;33255;-84
2023/01/13 14:43:48;;;;;;;29.08;14.30;;;;;;;3.94;100.00;100667.59;5339331;33;34329;-87
2023/01/13 14:46:56;;;;;;;27.35;13.62;;;;;;;4.11;100.00;100673.34;5326774;33;34291;-91
2023/01/13 14:50:18;;;;;;;25.67;14.48;;;;;;;4.04;100.00;100673.84;5327367;33;34286;-84
2023/01/13 14:53:45;;;;;;;28.90;13.32;;;;;;;3.99;100.00;100680.53;5323655;33;34537;-83
2023/01/13 14:56:52;;;;;;;26.75;13.23;;;;;;;4.11;100.00;100684.84;5324110;33;34098;-85
2023/01/13 15:00:13;;;;;;;25.15;13.48;;;;;;;4.13;100.00;100685.56;5323680;33;34740;-84
2023/01/13 15:03:20;;;;;;;26.60;14.48;;;;;;;4.14;100.00;100678.41;5308800;33;32775;-83
2023/01/13 15:06:24;;;;;;;27.00;14.63;;;;;;;4.08;100.00;100679.75;5319963;33;34998;-82
2023/01/13 15:09:37;;;;;;;26.98;13.70;;;;;;;4.11;100.00;100679.50;5310230;33;32616;-82
2023/01/13 15:12:42;;;;;;;28.42;14.25;;;;;;;4.16;100.00;100666.66;5323005;33;34852;-82
2023/01/13 15:15:50;;;;;;;28.60;14.35;;;;;;;4.05;100.00;100675.53;5323759;33;33899;-82
2023/01/13 15:18:54;;;;;;;27.58;14.38;;;;;;;4.03;100.00;100671.31;5310131;33;33566;-83
2023/01/13 15:21:57;;;;;;;29.92;14.70;;;;;;;4.00;100.00;100669.75;5309967;33;33522;-83
2023/01/13 15:25:00;;;;;;;28.30;15.23;;;;;;;4.03;100.00;100679.28;5306677;33;33039;-83
2023/01/13 15:28:04;;;;;;;31.52;15.07;;;;;;;4.03;100.00;100674.81;5314437;33;33780;-83
2023/01/13 15:31:08;;;;;;;27.65;14.52;;;;;;;3.96;100.00;100681.63;5307344;33;33216;-83
2023/01/13 15:34:11;;;;;;;25.58;13.68;;;;;;;3.95;100.00;100671.09;5321537;33;34764;-83
2023/01/13 15:37:15;;;;;;;30.08;14.48;;;;;;;3.95;100.00;100676.41;5320068;33;33735;-83
2023/01/13 15:40:31;;;;;;;29.50;14.40;;;;;;;3.92;100.00;100674.00;5319922;33;33794;-83
2023/01/13 15:46:59;;;;;;;35.45;16.37;;;;;;;3.92;100.00;100679.34;5320215;33;33061;-82
2023/01/13 15:50:02;;;;;;;31.87;14.87;;;;;;;3.87;100.00;100677.91;5317094;33;34459;-81
2023/01/13 15:53:10;;;;;;;32.47;14.23;;;;;;;4.02;100.00;100683.78;5305766;33;32398;-82
2023/01/13 15:56:25;;;;;;;28.52;14.35;;;;;;;4.00;100.00;100683.06;5331634;33;34863;-82
2023/01/13 15:59:28;;;;;;;29.92;15.13;;;;;;;4.02;100.00;100693.59;5326508;33;34438;-82
2023/01/13 16:02:31;;;;;;;31.77;15.32;;;;;;;3.99;100.00;100696.53;5326722;33;34515;-81
2023/01/13 16:05:34;;;;;;;34.45;16.67;;;;;;;3.96;100.00;100692.28;5327458;33;34712;-82
2023/01/13 16:08:37;;;;;;;30.98;14.87;;;;;;;3.98;100.00;100689.47;5326096;33;34432;-82
2023/01/13 16:11:40;;;;;;;33.28;14.60;;;;;;;3.98;100.00;100693.03;5315991;33;32488;-82
2023/01/13 16:14:42;;;;;;;28.38;13.75;;;;;;;4.00;100.00;100693.72;5327262;33;34094;-82
2023/01/13 16:17:46;;;;;;;30.20;15.70;;;;;;;3.93;100.00;100689.88;5309412;33;34805;-82
2023/01/13 16:20:52;;;;;;;29.48;14.38;;;;;;;3.97;100.00;100690.47;5325114;33;34853;-82
2023/01/13 16:23:55;;;;;;;29.25;14.60;;;;;;;4.05;100.00;100691.53;5326047;33;33643;-82
2023/01/13 16:27:00;;;;;;;27.52;13.88;;;;;;;4.14;100.00;100686.41;5323240;33;34606;-82
2023/01/13 16:30:04;;;;;;;31.02;15.18;;;;;;;4.09;100.00;100690.31;5328083;33;33577;-82
2023/01/13 16:33:06;;;;;;;32.40;16.10;;;;;;;4.05;100.00;100693.34;5314118;33;33822;-82
2023/01/13 16:36:13;;;;;;;31.77;15.18;;;;;;;4.03;100.00;100697.94;5303333;33;32804;-81
2023/01/13 16:39:21;;;;;;;33.97;14.35;;;;;;;4.07;100.00;100689.59;5326964;33;33609;-83
2023/01/13 16:42:23;;;;;;;30.08;14.23;;;;;;;3.99;100.00;100685.88;5328678;33;34090;-81
2023/01/13 16:45:26;;;;;;;27.08;13.95;;;;;;;4.02;100.00;100688.28;5323647;33;33700;-81
2023/01/13 16:48:29;;;;;;;27.23;14.35;;;;;;;4.04;100.00;100689.00;5311623;33;34542;-81
2023/01/13 16:51:32;;;;;;;30.30;15.07;;;;;;;4.08;100.00;100679.75;5324858;33;34765;-82
2023/01/13 16:54:35;;;;;;;32.55;15.48;;;;;;;4.05;100.00;100672.03;5325215;33;33750;-82
2023/01/13 16:57:38;;;;;;;29.10;14.52;;;;;;;4.06;100.00;100677.22;5325090;33;34048;-82
